createdAt,value
2023-05-22T05:00:26.374Z,101411.34
2023-05-22T05:03:13.332Z,101417.78
2023-05-22T05:06:01.422Z,101418.16
2023-05-22T05:08:49.728Z,101421.38
2023-05-22T05:11:36.055Z,101424.44
2023-05-22T05:14:23.476Z,101423.06
2023-05-22T05:36:39.445Z,101428.44
2023-05-22T05:39:26.551Z,101431.31
2023-05-22T05:42:12.944Z,101422.00
2023-05-22T05:44:59.777Z,101424.44
2023-05-22T05:47:47.978Z,101428.63
2023-05-22T05:50:35.229Z,101427.25
2023-05-22T05:53:23.515Z,101427.38
2023-05-22T05:56:16.025Z,101411.94
2023-05-22T05:59:02.626Z,101413.09
2023-05-22T06:02:01.759Z,101420.03
2023-05-22T06:04:51.622Z,101413.22
2023-05-22T06:07:39.741Z,101412.59
2023-05-22T06:10:28.916Z,101416.53
2023-05-22T06:13:30.036Z,101417.84
2023-05-22T06:16:16.626Z,101418.38
2023-05-22T06:19:04.567Z,101424.09
2023-05-22T06:21:52.238Z,101420.34
2023-05-22T06:24:40.517Z,101429.38
2023-05-22T06:27:33.926Z,101432.06
2023-05-22T06:30:31.988Z,101433.66
2023-05-22T06:33:27.819Z,101433.50
2023-05-22T06:36:14.011Z,101441.25
2023-05-22T06:39:00.048Z,101436.84
2023-05-22T06:42:06.719Z,101442.22
2023-05-22T06:45:14.731Z,101446.41
2023-05-22T06:48:11.498Z,101437.81
2023-05-22T06:51:06.936Z,101451.66
2023-05-22T06:53:53.417Z,101453.53
2023-05-22T06:56:44.074Z,101454.13
2023-05-22T06:59:35.406Z,101451.91
2023-05-22T07:02:26.279Z,101457.28
2023-05-22T07:05:35.380Z,101449.75
2023-05-22T07:08:22.570Z,101458.31
2023-05-22T07:11:09.419Z,101462.19
2023-05-22T07:13:56.075Z,101464.09
2023-05-22T07:16:42.691Z,101470.53
2023-05-22T07:19:30.944Z,101471.31
2023-05-22T07:22:24.138Z,101477.91
2023-05-22T07:25:10.814Z,101473.91
2023-05-22T07:27:58.308Z,101469.34
2023-05-22T07:30:45.693Z,101480.66
2023-05-22T07:33:32.503Z,101470.69
2023-05-22T07:36:21.112Z,101481.59
2023-05-22T07:39:09.555Z,101479.19
2023-05-22T07:41:59.503Z,101474.00
2023-05-22T07:44:48.392Z,101482.22
2023-05-22T07:47:36.880Z,101475.19
2023-05-22T07:50:26.595Z,101473.41
2023-05-22T07:53:14.940Z,101476.75
2023-05-22T07:56:03.053Z,101469.94
2023-05-22T07:58:50.949Z,101459.13
2023-05-22T08:01:41.829Z,101471.44
2023-05-22T08:04:30.052Z,101468.16
2023-05-22T08:07:16.891Z,101479.38
2023-05-22T08:10:09.014Z,101480.84
2023-05-22T08:12:55.406Z,101482.63
2023-05-22T08:15:41.655Z,101481.56
2023-05-22T08:18:29.103Z,101489.09
2023-05-22T08:21:16.177Z,101483.19
2023-05-22T08:24:02.880Z,101483.44
2023-05-22T08:26:50.525Z,101478.75
2023-05-22T08:29:36.938Z,101482.09
2023-05-22T08:32:23.812Z,101479.69
2023-05-22T08:35:11.814Z,101479.94
2023-05-22T08:37:57.981Z,101473.25
2023-05-22T08:40:49.089Z,101469.47
2023-05-22T08:43:36.682Z,101468.25
2023-05-22T08:46:28.304Z,101469.50
2023-05-22T08:49:14.941Z,101463.81
2023-05-22T08:52:06.671Z,101457.56
2023-05-22T08:54:56.416Z,101453.00
2023-05-22T08:57:45.880Z,101450.28
2023-05-22T09:00:34.311Z,101458.28
2023-05-22T09:03:21.649Z,101457.19
2023-05-22T09:06:10.256Z,101465.25
2023-05-22T09:08:56.662Z,101460.81
2023-05-22T09:11:43.403Z,101460.22
2023-05-22T09:14:39.215Z,101455.22
2023-05-22T09:17:27.533Z,101454.06
2023-05-22T09:20:15.692Z,101445.88
2023-05-22T09:23:03.798Z,101451.97
2023-05-22T09:25:50.138Z,101440.84
2023-05-22T09:28:38.159Z,101446.88
2023-05-22T09:31:24.521Z,101445.56
2023-05-22T09:34:14.746Z,101445.91
2023-05-22T09:37:04.273Z,101441.13
2023-05-22T09:39:54.437Z,101431.19
2023-05-22T09:42:44.178Z,101434.72
2023-05-22T09:45:30.741Z,101441.59
2023-05-22T09:48:18.544Z,101443.22
2023-05-22T09:51:08.476Z,101444.19
2023-05-22T09:54:03.750Z,101443.72
2023-05-22T09:56:51.141Z,101437.78
2023-05-22T09:59:40.193Z,101442.41
2023-05-22T10:02:29.231Z,101437.97
2023-05-22T10:05:21.638Z,101431.88
2023-05-22T10:08:11.911Z,101429.28
2023-05-22T10:10:58.997Z,101433.78
2023-05-22T10:13:47.424Z,101437.25
2023-05-22T13:35:46.067Z,101404.78
2023-05-22T13:38:35.466Z,101402.34
2023-05-22T13:41:22.273Z,101400.31
2023-05-22T13:44:09.598Z,101413.41
2023-05-22T13:46:56.286Z,101412.97
2023-05-22T13:49:45.008Z,101417.25
2023-05-22T13:52:32.847Z,101412.97
2023-05-22T13:55:21.388Z,101409.84
2023-05-22T13:58:08.219Z,101403.09
2023-05-22T14:00:57.571Z,101411.25
2023-05-22T14:04:12.456Z,101410.09
2023-05-22T14:06:59.354Z,101417.22
2023-05-22T14:09:49.878Z,101425.00
2023-05-22T14:12:36.246Z,101425.47
2023-05-22T14:15:24.200Z,101419.38
2023-05-22T14:18:16.854Z,101425.69
2023-05-22T14:21:04.737Z,101422.31
2023-05-22T14:23:51.630Z,101415.34
2023-05-22T14:26:40.382Z,101420.88
2023-05-22T14:29:27.401Z,101425.34
2023-05-22T14:32:13.484Z,101425.88
2023-05-22T14:34:59.817Z,101423.25
2023-05-22T14:37:46.883Z,101415.84
2023-05-22T14:40:33.317Z,101433.03
2023-05-22T14:43:21.948Z,101426.72
2023-05-22T14:46:08.798Z,101437.47
2023-05-22T14:48:55.368Z,101432.00
2023-05-22T14:51:41.954Z,101442.78
2023-05-22T14:54:32.391Z,101433.94
2023-05-22T14:57:18.759Z,101434.44
2023-05-22T16:02:28.881Z,101484.53
2023-05-22T16:05:15.709Z,101479.66
2023-05-22T16:08:02.447Z,101491.19
2023-05-22T16:10:48.709Z,101486.13
2023-05-22T16:13:35.276Z,101487.69
2023-05-22T17:07:00.031Z,101511.06
2023-05-22T17:10:13.924Z,101515.97
2023-05-22T17:13:02.809Z,101519.63
2023-05-22T17:15:49.817Z,101521.81
2023-05-22T17:18:36.708Z,101522.47
2023-05-22T17:21:24.175Z,101535.56
2023-05-22T17:24:14.692Z,101530.81
2023-05-22T17:27:03.423Z,101536.88
2023-05-22T17:30:16.242Z,101539.38
2023-05-22T17:33:03.689Z,101538.94
2023-05-22T17:35:50.902Z,101547.78
2023-05-22T17:38:39.252Z,101535.75
2023-05-22T17:41:27.436Z,101554.38
2023-05-22T17:44:14.228Z,101547.59
2023-05-22T17:47:00.989Z,101554.88
2023-05-22T17:49:47.299Z,101544.22
2023-05-22T17:52:33.602Z,101546.44
2023-05-22T17:55:20.878Z,101552.91
2023-05-22T17:58:08.924Z,101546.72
2023-05-22T18:00:55.349Z,101553.66
2023-05-22T18:03:42.216Z,101560.56
2023-05-22T18:06:29.147Z,101549.56
2023-05-22T18:09:15.718Z,101560.84
2023-05-22T18:12:03.578Z,101562.16
2023-05-22T18:14:52.236Z,101566.50
2023-05-22T18:17:38.889Z,101574.16
2023-05-22T18:20:25.119Z,101568.09
2023-05-22T18:23:11.524Z,101572.03
2023-05-22T18:25:58.231Z,101583.44
2023-05-22T18:28:44.783Z,101581.75
2023-05-22T18:31:33.286Z,101581.94
2023-05-22T18:34:19.857Z,101577.03
2023-05-22T18:37:06.609Z,101585.34
2023-05-22T18:39:52.978Z,101582.41
2023-05-22T18:42:39.676Z,101580.66
2023-05-22T18:45:26.422Z,101589.13
2023-05-22T18:48:14.236Z,101591.38
2023-05-22T18:51:01.236Z,101591.34
2023-05-22T18:53:47.519Z,101590.78
2023-05-22T18:56:34.086Z,101598.41
2023-05-22T18:59:20.783Z,101590.97
2023-05-22T19:48:43.980Z,101660.25
2023-05-22T19:52:53.696Z,101673.91
2023-05-22T22:02:58.884Z,101781.13
2023-05-22T22:05:45.115Z,101789.00
2023-05-22T22:08:31.973Z,101794.69
2023-05-22T22:11:18.206Z,101786.28
2023-05-22T22:14:04.872Z,101780.06
